Lynchburg Regional Preston Glenn Field Lynchburg US
ICAO: KLYH
IATA: LYH
Category: Medium
Scheduled Services: Yes

Elevation: 938 ft
TransAlt. 18000 ft.

Airport Communications:
ROANOKE APP/DEP:125.47
ATIS:119.8
CTAF:127.65
GND:121.9
LEESBURG RDO:109.2
TWR:127.65
UNICOM:122.95

KLYH Zoom In..

Runways:

(A) RW 04 length 7100 ft width 150 ft
ILS 110.10 / hdg 36

(B) RW 17 length 3386 ft width 75 ft
---- / hdg 170

(C) RW 22 length 7100 ft width 150 ft
---- / hdg 216

(D) RW 35 length 3386 ft width 75 ft
---- / hdg 350

Location; KLYH
Day. 20 / Time. 19.54 Zulu
* Altimeter: 30.05
* Temperature: 28° c. 82.4°f.
* Wind from: VRB° Speed 06 kn.
Dewpoint: 16° c.
Visibility: 10 Statute Miles.
Clouds: Scattered 4900 ft.
Clouds: Broken 7000 ft.
Clouds: Broken 8500 ft.

KLYH 201954Z VRB06KT 10SM SCT049 BKN070 BKN085 28/16 A3005 RMK AO2 SLP166 T02830156


Wind From VRB°
Speed 06 kn.

 
 
jpsmedia.com for Web Design worldairports.se 2018   terms of use